sensor_id;sensor_type;location;lat;lon;timestamp;P1;durP1;ratioP1;P2;durP2;ratioP2
17032;SDS011;63208;52.178;21.016;2023-07-29T00:01:53;977.63;;;910.47;;
17032;SDS011;63208;52.178;21.016;2023-07-29T00:04:20;1004.17;;;937.20;;
17032;SDS011;63208;52.178;21.016;2023-07-29T00:06:48;1000.37;;;932.83;;
17032;SDS011;63208;52.178;21.016;2023-07-29T00:09:15;988.80;;;921.63;;
17032;SDS011;63208;52.178;21.016;2023-07-29T00:11:42;982.47;;;918.30;;
17032;SDS011;63208;52.178;21.016;2023-07-29T00:14:09;988.43;;;921.23;;
17032;SDS011;63208;52.178;21.016;2023-07-29T00:16:35;1001.90;;;934.73;;
17032;SDS011;63208;52.178;21.016;2023-07-29T00:19:02;984.30;;;921.07;;
17032;SDS011;63208;52.178;21.016;2023-07-29T00:21:29;973.10;;;910.00;;
17032;SDS011;63208;52.178;21.016;2023-07-29T00:23:57;984.03;;;918.27;;
17032;SDS011;63208;52.178;21.016;2023-07-29T00:26:26;990.03;;;923.27;;
17032;SDS011;63208;52.178;21.016;2023-07-29T00:28:54;1004.43;;;937.03;;
17032;SDS011;63208;52.178;21.016;2023-07-29T00:31:20;1002.83;;;936.03;;
17032;SDS011;63208;52.178;21.016;2023-07-29T00:33:48;1011.07;;;943.53;;
17032;SDS011;63208;52.178;21.016;2023-07-29T00:36:15;997.67;;;930.00;;
17032;SDS011;63208;52.178;21.016;2023-07-29T00:38:42;996.90;;;929.50;;
17032;SDS011;63208;52.178;21.016;2023-07-29T00:41:10;996.07;;;930.70;;
17032;SDS011;63208;52.178;21.016;2023-07-29T00:43:39;1008.97;;;939.87;;
17032;SDS011;63208;52.178;21.016;2023-07-29T00:46:05;986.03;;;918.50;;
17032;SDS011;63208;52.178;21.016;2023-07-29T00:48:34;1004.60;;;936.53;;
17032;SDS011;63208;52.178;21.016;2023-07-29T00:51:01;999.60;;;930.73;;
17032;SDS011;63208;52.178;21.016;2023-07-29T00:53:28;980.37;;;915.57;;
17032;SDS011;63208;52.178;21.016;2023-07-29T00:55:55;1002.10;;;934.47;;
17032;SDS011;63208;52.178;21.016;2023-07-29T00:58:23;986.47;;;918.33;;
17032;SDS011;63208;52.178;21.016;2023-07-29T01:00:50;970.97;;;904.13;;
17032;SDS011;63208;52.178;21.016;2023-07-29T01:03:18;994.63;;;927.63;;
17032;SDS011;63208;52.178;21.016;2023-07-29T01:05:49;991.90;;;924.00;;
17032;SDS011;63208;52.178;21.016;2023-07-29T01:08:28;1007.10;;;937.83;;
17032;SDS011;63208;52.178;21.016;2023-07-29T01:11:03;1008.90;;;939.60;;
17032;SDS011;63208;52.178;21.016;2023-07-29T01:13:44;1019.20;;;949.77;;
17032;SDS011;63208;52.178;21.016;2023-07-29T01:16:15;997.43;;;931.40;;
17032;SDS011;63208;52.178;21.016;2023-07-29T01:18:47;1001.33;;;931.97;;
17032;SDS011;63208;52.178;21.016;2023-07-29T01:21:16;998.50;;;929.27;;
17032;SDS011;63208;52.178;21.016;2023-07-29T01:23:45;999.67;;;931.37;;
17032;SDS011;63208;52.178;21.016;2023-07-29T01:26:12;1014.10;;;944.37;;
17032;SDS011;63208;52.178;21.016;2023-07-29T01:28:39;1001.70;;;935.83;;
17032;SDS011;63208;52.178;21.016;2023-07-29T01:31:07;1012.47;;;943.03;;
17032;SDS011;63208;52.178;21.016;2023-07-29T01:33:40;1006.37;;;941.47;;
17032;SDS011;63208;52.178;21.016;2023-07-29T01:36:12;1021.97;;;954.97;;
17032;SDS011;63208;52.178;21.016;2023-07-29T01:38:46;985.37;;;920.47;;
17032;SDS011;63208;52.178;21.016;2023-07-29T01:41:15;1014.10;;;944.53;;
17032;SDS011;63208;52.178;21.016;2023-07-29T01:43:43;988.50;;;923.57;;
17032;SDS011;63208;52.178;21.016;2023-07-29T01:46:11;1015.53;;;946.70;;
17032;SDS011;63208;52.178;21.016;2023-07-29T01:48:39;1009.43;;;940.93;;
17032;SDS011;63208;52.178;21.016;2023-07-29T01:51:06;996.77;;;931.63;;
17032;SDS011;63208;52.178;21.016;2023-07-29T01:53:34;1008.00;;;942.90;;
17032;SDS011;63208;52.178;21.016;2023-07-29T01:56:02;1009.50;;;943.67;;
17032;SDS011;63208;52.178;21.016;2023-07-29T01:58:29;989.50;;;924.10;;
17032;SDS011;63208;52.178;21.016;2023-07-29T02:00:56;999.90;;;933.33;;
17032;SDS011;63208;52.178;21.016;2023-07-29T02:03:23;988.73;;;923.17;;
17032;SDS011;63208;52.178;21.016;2023-07-29T02:05:50;989.77;;;924.07;;
17032;SDS011;63208;52.178;21.016;2023-07-29T02:08:17;979.33;;;914.70;;
17032;SDS011;63208;52.178;21.016;2023-07-29T02:10:43;985.00;;;919.33;;
17032;SDS011;63208;52.178;21.016;2023-07-29T02:13:12;987.60;;;922.33;;
17032;SDS011;63208;52.178;21.016;2023-07-29T02:15:39;983.57;;;918.80;;
17032;SDS011;63208;52.178;21.016;2023-07-29T02:18:06;984.70;;;919.27;;
17032;SDS011;63208;52.178;21.016;2023-07-29T02:20:33;986.30;;;921.47;;
17032;SDS011;63208;52.178;21.016;2023-07-29T02:22:59;990.50;;;925.30;;
17032;SDS011;63208;52.178;21.016;2023-07-29T02:25:26;979.37;;;914.30;;
17032;SDS011;63208;52.178;21.016;2023-07-29T02:27:53;1008.17;;;938.90;;
17032;SDS011;63208;52.178;21.016;2023-07-29T02:30:21;1002.63;;;933.60;;
17032;SDS011;63208;52.178;21.016;2023-07-29T02:32:48;1008.20;;;939.70;;
17032;SDS011;63208;52.178;21.016;2023-07-29T02:35:15;1001.10;;;936.00;;
17032;SDS011;63208;52.178;21.016;2023-07-29T02:37:42;1002.30;;;936.73;;
17032;SDS011;63208;52.178;21.016;2023-07-29T02:40:09;998.10;;;932.90;;
17032;SDS011;63208;52.178;21.016;2023-07-29T02:42:36;994.43;;;929.13;;
17032;SDS011;63208;52.178;21.016;2023-07-29T02:45:03;1013.20;;;946.13;;
17032;SDS011;63208;52.178;21.016;2023-07-29T02:47:35;996.47;;;927.07;;
17032;SDS011;63208;52.178;21.016;2023-07-29T02:50:02;1015.10;;;946.20;;
17032;SDS011;63208;52.178;21.016;2023-07-29T02:52:33;1002.47;;;934.63;;
17032;SDS011;63208;52.178;21.016;2023-07-29T02:55:00;926.13;;;864.77;;
17032;SDS011;63208;52.178;21.016;2023-07-29T02:57:26;989.30;;;924.03;;
17032;SDS011;63208;52.178;21.016;2023-07-29T02:59:53;1001.47;;;932.07;;
17032;SDS011;63208;52.178;21.016;2023-07-29T03:02:20;977.20;;;912.07;;
17032;SDS011;63208;52.178;21.016;2023-07-29T03:04:48;1001.07;;;935.43;;
17032;SDS011;63208;52.178;21.016;2023-07-29T03:07:15;941.17;;;879.40;;
17032;SDS011;63208;52.178;21.016;2023-07-29T03:09:42;808.63;;;755.17;;
17032;SDS011;63208;52.178;21.016;2023-07-29T03:12:10;747.67;;;695.77;;
17032;SDS011;63208;52.178;21.016;2023-07-29T03:14:36;787.03;;;735.13;;
17032;SDS011;63208;52.178;21.016;2023-07-29T03:17:03;895.77;;;834.23;;
17032;SDS011;63208;52.178;21.016;2023-07-29T03:19:31;920.20;;;859.40;;
17032;SDS011;63208;52.178;21.016;2023-07-29T03:21:59;942.50;;;880.57;;
17032;SDS011;63208;52.178;21.016;2023-07-29T03:24:26;940.50;;;877.43;;
17032;SDS011;63208;52.178;21.016;2023-07-29T03:26:53;928.30;;;863.40;;
17032;SDS011;63208;52.178;21.016;2023-07-29T03:29:20;903.20;;;839.27;;
17032;SDS011;63208;52.178;21.016;2023-07-29T03:31:47;926.50;;;864.10;;
17032;SDS011;63208;52.178;21.016;2023-07-29T03:34:14;927.53;;;862.53;;
17032;SDS011;63208;52.178;21.016;2023-07-29T03:36:41;934.37;;;868.60;;
17032;SDS011;63208;52.178;21.016;2023-07-29T03:39:09;930.77;;;868.97;;
17032;SDS011;63208;52.178;21.016;2023-07-29T03:41:35;915.23;;;851.23;;
17032;SDS011;63208;52.178;21.016;2023-07-29T03:44:02;913.57;;;849.63;;
17032;SDS011;63208;52.178;21.016;2023-07-29T03:46:29;919.73;;;855.27;;
17032;SDS011;63208;52.178;21.016;2023-07-29T03:48:57;909.73;;;849.37;;
17032;SDS011;63208;52.178;21.016;2023-07-29T03:51:23;908.97;;;848.33;;
17032;SDS011;63208;52.178;21.016;2023-07-29T03:53:50;906.90;;;843.20;;
17032;SDS011;63208;52.178;21.016;2023-07-29T03:56:18;923.70;;;859.87;;
17032;SDS011;63208;52.178;21.016;2023-07-29T03:58:47;914.73;;;849.77;;
17032;SDS011;63208;52.178;21.016;2023-07-29T04:01:14;906.43;;;845.80;;
17032;SDS011;63208;52.178;21.016;2023-07-29T04:03:41;930.10;;;869.30;;
17032;SDS011;63208;52.178;21.016;2023-07-29T04:06:08;917.23;;;857.13;;
17032;SDS011;63208;52.178;21.016;2023-07-29T04:08:35;941.73;;;877.60;;
17032;SDS011;63208;52.178;21.016;2023-07-29T04:11:02;935.77;;;874.50;;
17032;SDS011;63208;52.178;21.016;2023-07-29T04:13:30;949.53;;;887.63;;
17032;SDS011;63208;52.178;21.016;2023-07-29T04:15:56;939.57;;;878.20;;
17032;SDS011;63208;52.178;21.016;2023-07-29T04:18:23;931.97;;;867.03;;
17032;SDS011;63208;52.178;21.016;2023-07-29T04:20:50;904.63;;;840.47;;
17032;SDS011;63208;52.178;21.016;2023-07-29T04:23:17;896.83;;;836.80;;
17032;SDS011;63208;52.178;21.016;2023-07-29T04:25:44;913.93;;;854.13;;
17032;SDS011;63208;52.178;21.016;2023-07-29T04:28:10;923.20;;;862.87;;
17032;SDS011;63208;52.178;21.016;2023-07-29T04:30:38;915.77;;;852.67;;
17032;SDS011;63208;52.178;21.016;2023-07-29T04:33:05;907.50;;;847.63;;
17032;SDS011;63208;52.178;21.016;2023-07-29T04:35:32;910.23;;;849.17;;
17032;SDS011;63208;52.178;21.016;2023-07-29T04:37:59;925.30;;;864.27;;
17032;SDS011;63208;52.178;21.016;2023-07-29T04:40:26;928.67;;;867.23;;
17032;SDS011;63208;52.178;21.016;2023-07-29T04:42:52;919.53;;;858.13;;
17032;SDS011;63208;52.178;21.016;2023-07-29T04:45:19;908.80;;;845.90;;
17032;SDS011;63208;52.178;21.016;2023-07-29T04:47:47;905.10;;;841.63;;
17032;SDS011;63208;52.178;21.016;2023-07-29T04:50:14;888.73;;;825.93;;
17032;SDS011;63208;52.178;21.016;2023-07-29T04:52:41;916.20;;;854.77;;
17032;SDS011;63208;52.178;21.016;2023-07-29T04:55:11;918.63;;;857.63;;
17032;SDS011;63208;52.178;21.016;2023-07-29T04:57:38;909.57;;;845.70;;
17032;SDS011;63208;52.178;21.016;2023-07-29T05:00:23;919.03;;;858.27;;
17032;SDS011;63208;52.178;21.016;2023-07-29T05:02:51;904.70;;;841.20;;
17032;SDS011;63208;52.178;21.016;2023-07-29T05:05:21;896.83;;;836.03;;
17032;SDS011;63208;52.178;21.016;2023-07-29T05:07:48;921.47;;;860.13;;
17032;SDS011;63208;52.178;21.016;2023-07-29T05:10:17;923.27;;;862.93;;
17032;SDS011;63208;52.178;21.016;2023-07-29T05:12:45;906.40;;;845.53;;
17032;SDS011;63208;52.178;21.016;2023-07-29T05:15:14;907.50;;;842.47;;
17032;SDS011;63208;52.178;21.016;2023-07-29T05:17:56;889.40;;;825.77;;
17032;SDS011;63208;52.178;21.016;2023-07-29T05:20:23;896.37;;;834.90;;
17032;SDS011;63208;52.178;21.016;2023-07-29T05:22:50;905.17;;;843.67;;
17032;SDS011;63208;52.178;21.016;2023-07-29T05:25:17;905.47;;;844.43;;
17032;SDS011;63208;52.178;21.016;2023-07-29T05:27:47;914.67;;;854.07;;
17032;SDS011;63208;52.178;21.016;2023-07-29T05:30:14;936.13;;;871.17;;
17032;SDS011;63208;52.178;21.016;2023-07-29T05:32:41;908.87;;;847.87;;
17032;SDS011;63208;52.178;21.016;2023-07-29T05:35:12;966.43;;;904.33;;
17032;SDS011;63208;52.178;21.016;2023-07-29T05:37:39;926.10;;;864.10;;
17032;SDS011;63208;52.178;21.016;2023-07-29T05:40:07;944.77;;;883.00;;
17032;SDS011;63208;52.178;21.016;2023-07-29T05:42:34;928.70;;;867.27;;
17032;SDS011;63208;52.178;21.016;2023-07-29T05:45:01;944.17;;;881.90;;
17032;SDS011;63208;52.178;21.016;2023-07-29T05:47:28;950.53;;;885.13;;
17032;SDS011;63208;52.178;21.016;2023-07-29T05:49:55;938.27;;;876.43;;
17032;SDS011;63208;52.178;21.016;2023-07-29T05:52:23;937.90;;;876.30;;
17032;SDS011;63208;52.178;21.016;2023-07-29T05:54:50;934.10;;;871.87;;
17032;SDS011;63208;52.178;21.016;2023-07-29T05:57:17;944.53;;;882.03;;
17032;SDS011;63208;52.178;21.016;2023-07-29T05:59:44;948.67;;;885.80;;
17032;SDS011;63208;52.178;21.016;2023-07-29T06:02:11;952.73;;;889.53;;
17032;SDS011;63208;52.178;21.016;2023-07-29T06:04:38;942.60;;;879.33;;
17032;SDS011;63208;52.178;21.016;2023-07-29T06:07:05;935.77;;;872.70;;
17032;SDS011;63208;52.178;21.016;2023-07-29T06:09:33;975.83;;;908.67;;
17032;SDS011;63208;52.178;21.016;2023-07-29T06:12:00;952.30;;;889.90;;
17032;SDS011;63208;52.178;21.016;2023-07-29T06:14:27;980.97;;;918.17;;
17032;SDS011;63208;52.178;21.016;2023-07-29T06:16:54;973.13;;;910.67;;
17032;SDS011;63208;52.178;21.016;2023-07-29T06:19:21;953.63;;;891.17;;
17032;SDS011;63208;52.178;21.016;2023-07-29T06:21:49;972.50;;;910.30;;
17032;SDS011;63208;52.178;21.016;2023-07-29T06:24:17;994.03;;;931.77;;
17032;SDS011;63208;52.178;21.016;2023-07-29T06:26:45;975.33;;;911.97;;
17032;SDS011;63208;52.178;21.016;2023-07-29T06:29:12;971.20;;;904.73;;
17032;SDS011;63208;52.178;21.016;2023-07-29T06:31:38;960.33;;;897.50;;
17032;SDS011;63208;52.178;21.016;2023-07-29T06:34:05;981.97;;;915.20;;
17032;SDS011;63208;52.178;21.016;2023-07-29T06:36:32;977.13;;;913.37;;
17032;SDS011;63208;52.178;21.016;2023-07-29T06:38:59;970.23;;;907.07;;
17032;SDS011;63208;52.178;21.016;2023-07-29T06:41:25;964.53;;;901.47;;
17032;SDS011;63208;52.178;21.016;2023-07-29T06:43:53;975.80;;;912.23;;
17032;SDS011;63208;52.178;21.016;2023-07-29T06:46:20;966.57;;;901.77;;
17032;SDS011;63208;52.178;21.016;2023-07-29T06:48:47;948.20;;;885.43;;
17032;SDS011;63208;52.178;21.016;2023-07-29T06:51:14;968.20;;;904.30;;
17032;SDS011;63208;52.178;21.016;2023-07-29T06:53:40;961.87;;;898.33;;
17032;SDS011;63208;52.178;21.016;2023-07-29T06:56:07;961.93;;;898.23;;
17032;SDS011;63208;52.178;21.016;2023-07-29T06:58:34;963.07;;;899.70;;
17032;SDS011;63208;52.178;21.016;2023-07-29T07:01:02;963.57;;;900.13;;
17032;SDS011;63208;52.178;21.016;2023-07-29T07:03:29;984.60;;;920.63;;
17032;SDS011;63208;52.178;21.016;2023-07-29T07:05:56;973.93;;;909.93;;
17032;SDS011;63208;52.178;21.016;2023-07-29T07:08:23;977.67;;;914.13;;
17032;SDS011;63208;52.178;21.016;2023-07-29T07:10:49;970.93;;;907.73;;
17032;SDS011;63208;52.178;21.016;2023-07-29T07:13:16;990.57;;;926.87;;
17032;SDS011;63208;52.178;21.016;2023-07-29T07:15:43;958.90;;;895.47;;
17032;SDS011;63208;52.178;21.016;2023-07-29T07:18:11;996.97;;;933.50;;
17032;SDS011;63208;52.178;21.016;2023-07-29T07:20:38;1005.57;;;941.53;;
17032;SDS011;63208;52.178;21.016;2023-07-29T07:23:05;1022.57;;;958.70;;
17032;SDS011;63208;52.178;21.016;2023-07-29T07:25:35;1010.47;;;947.87;;
17032;SDS011;63208;52.178;21.016;2023-07-29T07:28:02;992.40;;;926.10;;
17032;SDS011;63208;52.178;21.016;2023-07-29T07:30:29;1010.73;;;948.17;;
17032;SDS011;63208;52.178;21.016;2023-07-29T07:32:56;977.77;;;914.87;;
17032;SDS011;63208;52.178;21.016;2023-07-29T07:35:24;989.20;;;927.10;;
17032;SDS011;63208;52.178;21.016;2023-07-29T07:37:51;987.87;;;923.17;;
17032;SDS011;63208;52.178;21.016;2023-07-29T07:40:18;985.03;;;921.17;;
17032;SDS011;63208;52.178;21.016;2023-07-29T07:42:45;989.40;;;925.17;;
17032;SDS011;63208;52.178;21.016;2023-07-29T07:45:11;992.90;;;931.13;;
17032;SDS011;63208;52.178;21.016;2023-07-29T07:47:38;994.03;;;932.67;;
17032;SDS011;63208;52.178;21.016;2023-07-29T07:50:05;975.10;;;913.13;;
17032;SDS011;63208;52.178;21.016;2023-07-29T07:52:33;1002.57;;;941.27;;
17032;SDS011;63208;52.178;21.016;2023-07-29T07:55:00;982.23;;;917.43;;
17032;SDS011;63208;52.178;21.016;2023-07-29T07:57:27;1004.53;;;941.80;;
17032;SDS011;63208;52.178;21.016;2023-07-29T07:59:54;1002.43;;;940.23;;
17032;SDS011;63208;52.178;21.016;2023-07-29T08:02:21;997.40;;;936.53;;
17032;SDS011;63208;52.178;21.016;2023-07-29T08:04:48;991.07;;;929.30;;
17032;SDS011;63208;52.178;21.016;2023-07-29T08:07:14;994.83;;;932.23;;
17032;SDS011;63208;52.178;21.016;2023-07-29T08:09:43;990.57;;;927.97;;
17032;SDS011;63208;52.178;21.016;2023-07-29T08:12:10;997.73;;;935.03;;
17032;SDS011;63208;52.178;21.016;2023-07-29T08:14:36;991.40;;;930.53;;
17032;SDS011;63208;52.178;21.016;2023-07-29T08:17:06;996.63;;;935.53;;
17032;SDS011;63208;52.178;21.016;2023-07-29T08:19:34;1001.70;;;940.63;;
17032;SDS011;63208;52.178;21.016;2023-07-29T08:22:02;988.30;;;923.60;;
17032;SDS011;63208;52.178;21.016;2023-07-29T08:24:29;960.93;;;900.27;;
17032;SDS011;63208;52.178;21.016;2023-07-29T08:26:57;1003.03;;;940.40;;
17032;SDS011;63208;52.178;21.016;2023-07-29T08:29:24;975.97;;;914.73;;
17032;SDS011;63208;52.178;21.016;2023-07-29T08:31:51;973.83;;;911.37;;
17032;SDS011;63208;52.178;21.016;2023-07-29T08:34:17;979.70;;;915.67;;
17032;SDS011;63208;52.178;21.016;2023-07-29T08:36:50;975.97;;;915.13;;
17032;SDS011;63208;52.178;21.016;2023-07-29T08:39:17;986.73;;;925.77;;
17032;SDS011;63208;52.178;21.016;2023-07-29T08:41:45;989.60;;;925.70;;
17032;SDS011;63208;52.178;21.016;2023-07-29T08:44:20;976.77;;;918.13;;
17032;SDS011;63208;52.178;21.016;2023-07-29T08:46:48;993.23;;;930.43;;
17032;SDS011;63208;52.178;21.016;2023-07-29T08:49:24;990.37;;;926.73;;
17032;SDS011;63208;52.178;21.016;2023-07-29T08:51:53;984.37;;;924.00;;
17032;SDS011;63208;52.178;21.016;2023-07-29T08:54:23;1008.07;;;943.17;;
17032;SDS011;63208;52.178;21.016;2023-07-29T08:56:50;1000.10;;;939.37;;
17032;SDS011;63208;52.178;21.016;2023-07-29T09:03:13;992.87;;;928.17;;
17032;SDS011;63208;52.178;21.016;2023-07-29T09:05:40;991.20;;;930.20;;
17032;SDS011;63208;52.178;21.016;2023-07-29T09:08:07;1026.87;;;962.73;;
17032;SDS011;63208;52.178;21.016;2023-07-29T09:10:35;1027.77;;;965.57;;
17032;SDS011;63208;52.178;21.016;2023-07-29T09:13:02;1027.33;;;965.93;;
17032;SDS011;63208;52.178;21.016;2023-07-29T09:15:29;1027.17;;;962.50;;
17032;SDS011;63208;52.178;21.016;2023-07-29T09:17:58;1016.53;;;954.90;;
17032;SDS011;63208;52.178;21.016;2023-07-29T09:20:26;1042.30;;;976.30;;
17032;SDS011;63208;52.178;21.016;2023-07-29T09:22:54;1015.13;;;949.47;;
17032;SDS011;63208;52.178;21.016;2023-07-29T09:25:22;1028.37;;;962.97;;
17032;SDS011;63208;52.178;21.016;2023-07-29T09:27:50;1032.57;;;968.27;;
17032;SDS011;63208;52.178;21.016;2023-07-29T09:30:20;1025.97;;;961.50;;
17032;SDS011;63208;52.178;21.016;2023-07-29T09:32:52;1026.93;;;965.83;;
17032;SDS011;63208;52.178;21.016;2023-07-29T09:35:20;1008.67;;;943.30;;
17032;SDS011;63208;52.178;21.016;2023-07-29T09:37:49;1038.90;;;972.97;;
17032;SDS011;63208;52.178;21.016;2023-07-29T09:40:17;1027.87;;;962.23;;
17032;SDS011;63208;52.178;21.016;2023-07-29T09:42:47;1035.83;;;969.00;;
17032;SDS011;63208;52.178;21.016;2023-07-29T09:45:19;1032.83;;;969.80;;
17032;SDS011;63208;52.178;21.016;2023-07-29T09:47:46;1040.93;;;976.43;;
17032;SDS011;63208;52.178;21.016;2023-07-29T09:52:59;1033.50;;;967.50;;
17032;SDS011;63208;52.178;21.016;2023-07-29T09:55:28;1019.23;;;953.87;;
17032;SDS011;63208;52.178;21.016;2023-07-29T09:57:56;1023.83;;;960.07;;
17032;SDS011;63208;52.178;21.016;2023-07-29T10:00:25;1023.40;;;959.60;;
17032;SDS011;63208;52.178;21.016;2023-07-29T10:02:55;1021.97;;;957.60;;
17032;SDS011;63208;52.178;21.016;2023-07-29T10:05:28;1025.97;;;961.70;;
17032;SDS011;63208;52.178;21.016;2023-07-29T10:08:10;1030.27;;;964.57;;
17032;SDS011;63208;52.178;21.016;2023-07-29T10:10:55;1043.37;;;977.67;;
17032;SDS011;63208;52.178;21.016;2023-07-29T10:13:23;1037.33;;;973.10;;
17032;SDS011;63208;52.178;21.016;2023-07-29T10:15:51;1030.37;;;965.20;;
17032;SDS011;63208;52.178;21.016;2023-07-29T10:18:19;1040.07;;;974.30;;
17032;SDS011;63208;52.178;21.016;2023-07-29T10:20:47;1047.23;;;981.93;;
17032;SDS011;63208;52.178;21.016;2023-07-29T10:23:18;1054.30;;;988.83;;
17032;SDS011;63208;52.178;21.016;2023-07-29T10:25:49;1063.30;;;996.90;;
17032;SDS011;63208;52.178;21.016;2023-07-29T10:28:24;1043.10;;;978.20;;
17032;SDS011;63208;52.178;21.016;2023-07-29T10:30:52;1052.97;;;986.30;;
17032;SDS011;63208;52.178;21.016;2023-07-29T10:33:19;1033.30;;;969.00;;
17032;SDS011;63208;52.178;21.016;2023-07-29T10:35:46;1045.80;;;984.17;;
17032;SDS011;63208;52.178;21.016;2023-07-29T10:41:55;1031.13;;;966.23;;
17032;SDS011;63208;52.178;21.016;2023-07-29T10:47:19;1062.77;;;995.00;;
17032;SDS011;63208;52.178;21.016;2023-07-29T10:49:50;1054.23;;;987.80;;
17032;SDS011;63208;52.178;21.016;2023-07-29T10:52:28;1073.47;;;999.90;;
17032;SDS011;63208;52.178;21.016;2023-07-29T10:55:22;1055.87;;;989.20;;
17032;SDS011;63208;52.178;21.016;2023-07-29T10:58:05;1064.87;;;997.00;;
17032;SDS011;63208;52.178;21.016;2023-07-29T11:00:34;1060.70;;;994.13;;
17032;SDS011;63208;52.178;21.016;2023-07-29T11:03:01;1082.03;;;999.90;;
17032;SDS011;63208;52.178;21.016;2023-07-29T11:05:42;1068.40;;;998.47;;
17032;SDS011;63208;52.178;21.016;2023-07-29T11:08:20;1085.17;;;999.90;;
17032;SDS011;63208;52.178;21.016;2023-07-29T11:10:59;1065.80;;;997.70;;
17032;SDS011;63208;52.178;21.016;2023-07-29T11:13:34;1076.30;;;999.90;;
17032;SDS011;63208;52.178;21.016;2023-07-29T11:16:02;1087.93;;;999.90;;
17032;SDS011;63208;52.178;21.016;2023-07-29T11:18:30;1088.77;;;999.90;;
17032;SDS011;63208;52.178;21.016;2023-07-29T11:20:59;1073.73;;;999.90;;
17032;SDS011;63208;52.178;21.016;2023-07-29T11:23:28;1091.37;;;999.90;;
17032;SDS011;63208;52.178;21.016;2023-07-29T11:25:56;1093.40;;;999.90;;
17032;SDS011;63208;52.178;21.016;2023-07-29T11:28:24;1079.53;;;999.90;;
17032;SDS011;63208;52.178;21.016;2023-07-29T11:30:52;1100.63;;;999.90;;
17032;SDS011;63208;52.178;21.016;2023-07-29T11:33:21;1104.10;;;999.90;;
17032;SDS011;63208;52.178;21.016;2023-07-29T11:35:49;1115.63;;;999.90;;
17032;SDS011;63208;52.178;21.016;2023-07-29T11:38:16;1111.03;;;999.90;;
17032;SDS011;63208;52.178;21.016;2023-07-29T11:40:53;1115.87;;;999.90;;
17032;SDS011;63208;52.178;21.016;2023-07-29T11:43:20;1104.60;;;999.90;;
17032;SDS011;63208;52.178;21.016;2023-07-29T11:45:47;1110.07;;;999.90;;
17032;SDS011;63208;52.178;21.016;2023-07-29T11:48:16;1102.23;;;999.90;;
17032;SDS011;63208;52.178;21.016;2023-07-29T11:50:43;1111.37;;;999.90;;
17032;SDS011;63208;52.178;21.016;2023-07-29T11:53:12;1107.67;;;999.90;;
17032;SDS011;63208;52.178;21.016;2023-07-29T11:55:39;1074.37;;;999.90;;
17032;SDS011;63208;52.178;21.016;2023-07-29T11:58:06;1112.17;;;999.90;;
17032;SDS011;63208;52.178;21.016;2023-07-29T12:00:33;1094.53;;;999.90;;
17032;SDS011;63208;52.178;21.016;2023-07-29T12:03:00;1118.10;;;999.90;;
17032;SDS011;63208;52.178;21.016;2023-07-29T12:05:30;1108.43;;;999.90;;
17032;SDS011;63208;52.178;21.016;2023-07-29T12:07:57;1124.70;;;999.90;;
17032;SDS011;63208;52.178;21.016;2023-07-29T12:10:25;1120.30;;;999.90;;
17032;SDS011;63208;52.178;21.016;2023-07-29T12:12:52;1129.03;;;999.90;;
17032;SDS011;63208;52.178;21.016;2023-07-29T12:15:22;1136.37;;;999.90;;
17032;SDS011;63208;52.178;21.016;2023-07-29T12:17:52;1149.10;;;999.90;;
17032;SDS011;63208;52.178;21.016;2023-07-29T12:20:22;1135.70;;;999.90;;
17032;SDS011;63208;52.178;21.016;2023-07-29T12:22:53;1137.47;;;999.90;;
17032;SDS011;63208;52.178;21.016;2023-07-29T12:25:21;1125.13;;;999.90;;
17032;SDS011;63208;52.178;21.016;2023-07-29T12:27:48;1131.13;;;999.90;;
17032;SDS011;63208;52.178;21.016;2023-07-29T12:30:16;1137.63;;;999.90;;
17032;SDS011;63208;52.178;21.016;2023-07-29T12:32:43;1109.63;;;999.90;;
17032;SDS011;63208;52.178;21.016;2023-07-29T12:35:11;1123.30;;;999.90;;
17032;SDS011;63208;52.178;21.016;2023-07-29T12:37:38;1125.67;;;999.90;;
17032;SDS011;63208;52.178;21.016;2023-07-29T12:40:19;1130.67;;;999.90;;
17032;SDS011;63208;52.178;21.016;2023-07-29T12:42:50;1138.63;;;999.90;;
17032;SDS011;63208;52.178;21.016;2023-07-29T12:45:35;1144.60;;;999.90;;
17032;SDS011;63208;52.178;21.016;2023-07-29T12:48:04;1137.20;;;999.90;;
17032;SDS011;63208;52.178;21.016;2023-07-29T12:50:31;1152.53;;;999.90;;
17032;SDS011;63208;52.178;21.016;2023-07-29T12:52:58;1151.77;;;999.90;;
17032;SDS011;63208;52.178;21.016;2023-07-29T12:55:26;1161.70;;;999.90;;
17032;SDS011;63208;52.178;21.016;2023-07-29T12:57:53;1159.50;;;999.90;;
17032;SDS011;63208;52.178;21.016;2023-07-29T13:00:20;1170.47;;;999.90;;
17032;SDS011;63208;52.178;21.016;2023-07-29T13:02:46;1182.93;;;999.90;;
17032;SDS011;63208;52.178;21.016;2023-07-29T13:05:13;1161.53;;;999.90;;
17032;SDS011;63208;52.178;21.016;2023-07-29T13:07:40;1169.40;;;999.90;;
17032;SDS011;63208;52.178;21.016;2023-07-29T13:10:08;1164.20;;;999.90;;
17032;SDS011;63208;52.178;21.016;2023-07-29T13:12:37;1177.13;;;999.90;;
17032;SDS011;63208;52.178;21.016;2023-07-29T13:15:04;1182.83;;;999.90;;
17032;SDS011;63208;52.178;21.016;2023-07-29T13:17:32;1185.47;;;999.90;;
17032;SDS011;63208;52.178;21.016;2023-07-29T13:19:59;1204.27;;;999.90;;
17032;SDS011;63208;52.178;21.016;2023-07-29T13:22:26;1199.13;;;999.90;;
17032;SDS011;63208;52.178;21.016;2023-07-29T13:24:53;1199.33;;;999.90;;
17032;SDS011;63208;52.178;21.016;2023-07-29T13:27:20;1185.55;;;999.90;;
17032;SDS011;63208;52.178;21.016;2023-07-29T13:29:48;1216.75;;;999.90;;
17032;SDS011;63208;52.178;21.016;2023-07-29T13:32:15;1214.22;;;999.90;;
17032;SDS011;63208;52.178;21.016;2023-07-29T13:34:42;1245.88;;;999.90;;
17032;SDS011;63208;52.178;21.016;2023-07-29T13:37:09;1252.13;;;999.90;;
17032;SDS011;63208;52.178;21.016;2023-07-29T13:39:36;1256.43;;;999.90;;
17032;SDS011;63208;52.178;21.016;2023-07-29T13:42:03;1271.85;;;999.90;;
17032;SDS011;63208;52.178;21.016;2023-07-29T13:44:38;1268.25;;;999.90;;
17032;SDS011;63208;52.178;21.016;2023-07-29T13:47:07;1277.75;;;999.90;;
17032;SDS011;63208;52.178;21.016;2023-07-29T13:49:34;1302.50;;;999.90;;
17032;SDS011;63208;52.178;21.016;2023-07-29T13:52:01;1299.93;;;999.90;;
17032;SDS011;63208;52.178;21.016;2023-07-29T13:54:28;1301.80;;;999.90;;
17032;SDS011;63208;52.178;21.016;2023-07-29T13:56:55;1311.72;;;999.90;;
17032;SDS011;63208;52.178;21.016;2023-07-29T13:59:22;1326.95;;;999.90;;